sensor_id;sensor_type;location;lat;lon;timestamp;P1;durP1;ratioP1;P2;durP2;ratioP2
3299;SDS011;1662;49.310;8.134;2024-02-15T00:01:13;5.70;;;5.10;;
3299;SDS011;1662;49.310;8.134;2024-02-15T00:03:39;7.30;;;5.80;;
3299;SDS011;1662;49.310;8.134;2024-02-15T00:06:05;6.70;;;6.03;;
3299;SDS011;1662;49.310;8.134;2024-02-15T00:08:30;7.00;;;4.80;;
3299;SDS011;1662;49.310;8.134;2024-02-15T00:10:57;5.03;;;4.73;;
3299;SDS011;1662;49.310;8.134;2024-02-15T00:13:23;5.20;;;4.77;;
3299;SDS011;1662;49.310;8.134;2024-02-15T00:15:49;7.70;;;4.83;;
3299;SDS011;1662;49.310;8.134;2024-02-15T00:18:15;5.00;;;4.50;;
3299;SDS011;1662;49.310;8.134;2024-02-15T00:20:41;4.77;;;4.30;;
3299;SDS011;1662;49.310;8.134;2024-02-15T00:23:06;5.57;;;4.60;;
3299;SDS011;1662;49.310;8.134;2024-02-15T00:25:32;5.00;;;4.60;;
3299;SDS011;1662;49.310;8.134;2024-02-15T00:28:00;5.97;;;4.73;;
3299;SDS011;1662;49.310;8.134;2024-02-15T00:30:27;5.57;;;4.97;;
3299;SDS011;1662;49.310;8.134;2024-02-15T00:32:53;6.03;;;3.80;;
3299;SDS011;1662;49.310;8.134;2024-02-15T00:35:21;4.90;;;4.37;;
3299;SDS011;1662;49.310;8.134;2024-02-15T00:37:46;6.37;;;4.87;;
3299;SDS011;1662;49.310;8.134;2024-02-15T00:40:12;6.33;;;4.80;;
3299;SDS011;1662;49.310;8.134;2024-02-15T00:42:40;5.20;;;4.80;;
3299;SDS011;1662;49.310;8.134;2024-02-15T00:45:06;6.30;;;4.77;;
3299;SDS011;1662;49.310;8.134;2024-02-15T00:47:34;5.10;;;4.60;;
3299;SDS011;1662;49.310;8.134;2024-02-15T00:49:59;5.20;;;4.40;;
3299;SDS011;1662;49.310;8.134;2024-02-15T00:52:25;4.63;;;4.23;;
3299;SDS011;1662;49.310;8.134;2024-02-15T00:54:50;8.70;;;3.90;;
3299;SDS011;1662;49.310;8.134;2024-02-15T00:57:16;5.67;;;4.37;;
3299;SDS011;1662;49.310;8.134;2024-02-15T00:59:42;4.00;;;3.70;;
3299;SDS011;1662;49.310;8.134;2024-02-15T01:02:08;4.87;;;4.13;;
3299;SDS011;1662;49.310;8.134;2024-02-15T01:04:34;4.20;;;3.90;;
3299;SDS011;1662;49.310;8.134;2024-02-15T01:07:00;4.40;;;4.00;;
3299;SDS011;1662;49.310;8.134;2024-02-15T01:09:28;3.97;;;3.67;;
3299;SDS011;1662;49.310;8.134;2024-02-15T01:11:54;3.70;;;3.50;;
3299;SDS011;1662;49.310;8.134;2024-02-15T01:14:22;4.57;;;4.03;;
3299;SDS011;1662;49.310;8.134;2024-02-15T01:16:47;3.80;;;3.33;;
3299;SDS011;1662;49.310;8.134;2024-02-15T01:19:19;4.30;;;3.90;;
3299;SDS011;1662;49.310;8.134;2024-02-15T01:21:44;7.17;;;3.93;;
3299;SDS011;1662;49.310;8.134;2024-02-15T01:24:11;4.03;;;3.70;;
3299;SDS011;1662;49.310;8.134;2024-02-15T01:26:37;4.07;;;3.67;;
3299;SDS011;1662;49.310;8.134;2024-02-15T01:29:02;3.47;;;3.17;;
3299;SDS011;1662;49.310;8.134;2024-02-15T01:31:28;3.57;;;3.27;;
3299;SDS011;1662;49.310;8.134;2024-02-15T01:33:54;5.40;;;3.70;;
3299;SDS011;1662;49.310;8.134;2024-02-15T01:36:19;3.50;;;3.30;;
3299;SDS011;1662;49.310;8.134;2024-02-15T01:38:48;4.60;;;3.70;;
3299;SDS011;1662;49.310;8.134;2024-02-15T01:41:13;5.23;;;4.17;;
3299;SDS011;1662;49.310;8.134;2024-02-15T01:43:43;3.60;;;3.30;;
3299;SDS011;1662;49.310;8.134;2024-02-15T01:46:10;8.57;;;3.33;;
3299;SDS011;1662;49.310;8.134;2024-02-15T01:48:39;5.80;;;3.10;;
3299;SDS011;1662;49.310;8.134;2024-02-15T01:51:07;3.60;;;3.30;;
3299;SDS011;1662;49.310;8.134;2024-02-15T01:53:37;3.67;;;3.10;;
3299;SDS011;1662;49.310;8.134;2024-02-15T01:56:03;3.33;;;3.10;;
3299;SDS011;1662;49.310;8.134;2024-02-15T01:58:30;4.60;;;3.17;;
3299;SDS011;1662;49.310;8.134;2024-02-15T02:00:57;3.43;;;3.10;;
3299;SDS011;1662;49.310;8.134;2024-02-15T02:03:24;3.83;;;2.73;;
3299;SDS011;1662;49.310;8.134;2024-02-15T02:05:50;7.03;;;3.70;;
3299;SDS011;1662;49.310;8.134;2024-02-15T02:08:16;5.50;;;3.03;;
3299;SDS011;1662;49.310;8.134;2024-02-15T02:10:45;3.97;;;3.10;;
3299;SDS011;1662;49.310;8.134;2024-02-15T02:13:11;7.33;;;3.00;;
3299;SDS011;1662;49.310;8.134;2024-02-15T02:15:37;3.80;;;3.60;;
3299;SDS011;1662;49.310;8.134;2024-02-15T02:18:03;3.53;;;3.23;;
3299;SDS011;1662;49.310;8.134;2024-02-15T02:20:33;3.50;;;3.20;;
3299;SDS011;1662;49.310;8.134;2024-02-15T02:23:25;3.67;;;3.33;;
3299;SDS011;1662;49.310;8.134;2024-02-15T02:25:51;3.20;;;2.70;;
3299;SDS011;1662;49.310;8.134;2024-02-15T02:28:19;2.97;;;2.77;;
3299;SDS011;1662;49.310;8.134;2024-02-15T02:30:47;4.47;;;2.77;;
3299;SDS011;1662;49.310;8.134;2024-02-15T02:33:13;4.30;;;2.43;;
3299;SDS011;1662;49.310;8.134;2024-02-15T02:35:47;4.20;;;2.70;;
3299;SDS011;1662;49.310;8.134;2024-02-15T02:38:13;3.07;;;2.87;;
3299;SDS011;1662;49.310;8.134;2024-02-15T02:40:39;3.90;;;2.50;;
3299;SDS011;1662;49.310;8.134;2024-02-15T02:43:05;5.67;;;2.80;;
3299;SDS011;1662;49.310;8.134;2024-02-15T02:45:32;3.60;;;2.50;;
3299;SDS011;1662;49.310;8.134;2024-02-15T02:47:58;2.57;;;2.30;;
3299;SDS011;1662;49.310;8.134;2024-02-15T02:50:26;2.67;;;2.43;;
3299;SDS011;1662;49.310;8.134;2024-02-15T02:52:51;4.07;;;2.30;;
3299;SDS011;1662;49.310;8.134;2024-02-15T02:55:17;2.97;;;2.77;;
3299;SDS011;1662;49.310;8.134;2024-02-15T02:57:45;2.53;;;2.33;;
3299;SDS011;1662;49.310;8.134;2024-02-15T03:00:14;2.33;;;2.20;;
3299;SDS011;1662;49.310;8.134;2024-02-15T03:02:42;2.87;;;2.67;;
3299;SDS011;1662;49.310;8.134;2024-02-15T03:05:09;2.70;;;2.50;;
3299;SDS011;1662;49.310;8.134;2024-02-15T03:07:36;4.70;;;3.10;;
3299;SDS011;1662;49.310;8.134;2024-02-15T03:10:02;2.20;;;2.10;;
3299;SDS011;1662;49.310;8.134;2024-02-15T03:12:29;3.40;;;3.20;;
3299;SDS011;1662;49.310;8.134;2024-02-15T03:14:56;3.17;;;2.93;;
3299;SDS011;1662;49.310;8.134;2024-02-15T03:17:24;4.13;;;3.70;;
3299;SDS011;1662;49.310;8.134;2024-02-15T03:19:50;6.23;;;3.07;;
3299;SDS011;1662;49.310;8.134;2024-02-15T03:22:16;3.57;;;3.17;;
3299;SDS011;1662;49.310;8.134;2024-02-15T03:24:42;5.53;;;3.03;;
3299;SDS011;1662;49.310;8.134;2024-02-15T03:27:08;3.17;;;2.90;;
3299;SDS011;1662;49.310;8.134;2024-02-15T03:29:37;3.13;;;2.93;;
3299;SDS011;1662;49.310;8.134;2024-02-15T03:32:03;2.60;;;2.37;;
3299;SDS011;1662;49.310;8.134;2024-02-15T03:34:30;3.50;;;3.20;;
3299;SDS011;1662;49.310;8.134;2024-02-15T03:36:56;2.57;;;2.40;;
3299;SDS011;1662;49.310;8.134;2024-02-15T03:39:27;2.97;;;2.63;;
3299;SDS011;1662;49.310;8.134;2024-02-15T03:41:52;3.03;;;2.63;;
3299;SDS011;1662;49.310;8.134;2024-02-15T03:44:18;6.93;;;3.07;;
3299;SDS011;1662;49.310;8.134;2024-02-15T03:46:44;4.43;;;2.60;;
3299;SDS011;1662;49.310;8.134;2024-02-15T03:49:16;2.77;;;2.57;;
3299;SDS011;1662;49.310;8.134;2024-02-15T03:51:43;3.07;;;2.60;;
3299;SDS011;1662;49.310;8.134;2024-02-15T03:54:12;2.73;;;2.53;;
3299;SDS011;1662;49.310;8.134;2024-02-15T03:56:47;4.47;;;2.80;;
3299;SDS011;1662;49.310;8.134;2024-02-15T03:59:17;5.00;;;3.40;;
3299;SDS011;1662;49.310;8.134;2024-02-15T04:01:46;3.47;;;2.80;;
3299;SDS011;1662;49.310;8.134;2024-02-15T04:04:12;2.50;;;2.30;;
3299;SDS011;1662;49.310;8.134;2024-02-15T04:06:38;4.20;;;2.90;;
3299;SDS011;1662;49.310;8.134;2024-02-15T04:09:05;3.47;;;3.27;;
3299;SDS011;1662;49.310;8.134;2024-02-15T04:11:32;3.13;;;2.83;;
3299;SDS011;1662;49.310;8.134;2024-02-15T04:13:58;2.40;;;2.20;;
3299;SDS011;1662;49.310;8.134;2024-02-15T04:16:24;3.33;;;2.97;;
3299;SDS011;1662;49.310;8.134;2024-02-15T04:18:51;3.03;;;2.70;;
3299;SDS011;1662;49.310;8.134;2024-02-15T04:21:16;4.40;;;2.83;;
3299;SDS011;1662;49.310;8.134;2024-02-15T04:23:44;5.90;;;2.70;;
3299;SDS011;1662;49.310;8.134;2024-02-15T04:26:10;3.20;;;3.00;;
3299;SDS011;1662;49.310;8.134;2024-02-15T04:28:38;3.73;;;2.87;;
3299;SDS011;1662;49.310;8.134;2024-02-15T04:31:04;2.43;;;2.23;;
3299;SDS011;1662;49.310;8.134;2024-02-15T04:33:33;2.90;;;2.73;;
3299;SDS011;1662;49.310;8.134;2024-02-15T04:36:01;5.73;;;2.63;;
3299;SDS011;1662;49.310;8.134;2024-02-15T04:38:34;3.40;;;2.70;;
3299;SDS011;1662;49.310;8.134;2024-02-15T04:41:03;3.60;;;2.93;;
3299;SDS011;1662;49.310;8.134;2024-02-15T04:43:34;5.83;;;4.13;;
3299;SDS011;1662;49.310;8.134;2024-02-15T04:46:02;3.10;;;2.77;;
3299;SDS011;1662;49.310;8.134;2024-02-15T04:48:32;2.63;;;2.50;;
3299;SDS011;1662;49.310;8.134;2024-02-15T04:50:59;3.23;;;3.10;;
3299;SDS011;1662;49.310;8.134;2024-02-15T04:53:28;2.87;;;2.67;;
3299;SDS011;1662;49.310;8.134;2024-02-15T04:55:55;9.27;;;3.40;;
3299;SDS011;1662;49.310;8.134;2024-02-15T04:58:20;3.50;;;3.20;;
3299;SDS011;1662;49.310;8.134;2024-02-15T05:00:49;5.73;;;4.00;;
3299;SDS011;1662;49.310;8.134;2024-02-15T05:03:18;3.20;;;3.00;;
3299;SDS011;1662;49.310;8.134;2024-02-15T05:05:44;3.00;;;2.90;;
3299;SDS011;1662;49.310;8.134;2024-02-15T05:08:09;3.50;;;3.20;;
3299;SDS011;1662;49.310;8.134;2024-02-15T05:10:35;4.97;;;3.47;;
3299;SDS011;1662;49.310;8.134;2024-02-15T05:13:03;3.60;;;3.40;;
3299;SDS011;1662;49.310;8.134;2024-02-15T05:15:29;3.63;;;3.40;;
3299;SDS011;1662;49.310;8.134;2024-02-15T05:17:55;3.80;;;3.40;;
3299;SDS011;1662;49.310;8.134;2024-02-15T05:20:21;3.53;;;3.23;;
3299;SDS011;1662;49.310;8.134;2024-02-15T05:22:47;2.93;;;2.73;;
3299;SDS011;1662;49.310;8.134;2024-02-15T05:25:12;2.83;;;2.73;;
3299;SDS011;1662;49.310;8.134;2024-02-15T05:27:38;3.10;;;2.90;;
3299;SDS011;1662;49.310;8.134;2024-02-15T05:30:04;3.40;;;3.10;;
3299;SDS011;1662;49.310;8.134;2024-02-15T05:32:32;3.47;;;3.10;;
3299;SDS011;1662;49.310;8.134;2024-02-15T05:35:00;5.97;;;4.43;;
3299;SDS011;1662;49.310;8.134;2024-02-15T05:37:28;4.83;;;4.30;;
3299;SDS011;1662;49.310;8.134;2024-02-15T05:39:55;6.80;;;4.80;;
3299;SDS011;1662;49.310;8.134;2024-02-15T05:42:21;6.10;;;4.63;;
3299;SDS011;1662;49.310;8.134;2024-02-15T05:44:49;4.27;;;3.23;;
3299;SDS011;1662;49.310;8.134;2024-02-15T05:47:15;4.80;;;3.80;;
3299;SDS011;1662;49.310;8.134;2024-02-15T05:49:44;3.33;;;3.10;;
3299;SDS011;1662;49.310;8.134;2024-02-15T05:52:12;4.03;;;3.00;;
3299;SDS011;1662;49.310;8.134;2024-02-15T05:54:37;4.33;;;3.90;;
3299;SDS011;1662;49.310;8.134;2024-02-15T05:57:04;9.87;;;4.33;;
3299;SDS011;1662;49.310;8.134;2024-02-15T05:59:30;4.50;;;4.10;;
3299;SDS011;1662;49.310;8.134;2024-02-15T06:01:59;4.27;;;3.97;;
3299;SDS011;1662;49.310;8.134;2024-02-15T06:04:29;5.47;;;4.00;;
3299;SDS011;1662;49.310;8.134;2024-02-15T06:06:55;4.37;;;4.07;;
3299;SDS011;1662;49.310;8.134;2024-02-15T06:09:25;3.93;;;3.63;;
3299;SDS011;1662;49.310;8.134;2024-02-15T06:11:52;4.13;;;3.83;;
3299;SDS011;1662;49.310;8.134;2024-02-15T06:14:20;4.93;;;4.53;;
3299;SDS011;1662;49.310;8.134;2024-02-15T06:16:46;4.13;;;3.83;;
3299;SDS011;1662;49.310;8.134;2024-02-15T06:19:11;4.40;;;4.00;;
3299;SDS011;1662;49.310;8.134;2024-02-15T06:21:37;4.00;;;3.80;;
3299;SDS011;1662;49.310;8.134;2024-02-15T06:24:02;4.67;;;3.17;;
3299;SDS011;1662;49.310;8.134;2024-02-15T06:26:28;6.33;;;4.37;;
3299;SDS011;1662;49.310;8.134;2024-02-15T06:28:54;4.10;;;3.80;;
3299;SDS011;1662;49.310;8.134;2024-02-15T06:31:38;4.63;;;3.50;;
3299;SDS011;1662;49.310;8.134;2024-02-15T06:34:22;5.13;;;4.53;;
3299;SDS011;1662;49.310;8.134;2024-02-15T06:37:06;4.63;;;4.23;;
3299;SDS011;1662;49.310;8.134;2024-02-15T06:39:50;4.20;;;3.60;;
3299;SDS011;1662;49.310;8.134;2024-02-15T06:42:17;4.53;;;4.23;;
3299;SDS011;1662;49.310;8.134;2024-02-15T06:44:46;4.67;;;3.97;;
3299;SDS011;1662;49.310;8.134;2024-02-15T06:47:13;7.87;;;5.90;;
3299;SDS011;1662;49.310;8.134;2024-02-15T06:49:42;8.30;;;6.27;;
3299;SDS011;1662;49.310;8.134;2024-02-15T06:52:09;5.20;;;4.80;;
3299;SDS011;1662;49.310;8.134;2024-02-15T06:54:37;5.23;;;4.23;;
3299;SDS011;1662;49.310;8.134;2024-02-15T06:57:04;7.90;;;4.87;;
3299;SDS011;1662;49.310;8.134;2024-02-15T06:59:32;9.23;;;4.90;;
3299;SDS011;1662;49.310;8.134;2024-02-15T07:01:59;11.20;;;9.77;;
3299;SDS011;1662;49.310;8.134;2024-02-15T07:04:30;12.30;;;10.77;;
3299;SDS011;1662;49.310;8.134;2024-02-15T07:06:57;14.40;;;10.17;;
3299;SDS011;1662;49.310;8.134;2024-02-15T07:09:23;9.20;;;8.30;;
3299;SDS011;1662;49.310;8.134;2024-02-15T07:11:50;8.67;;;7.03;;
3299;SDS011;1662;49.310;8.134;2024-02-15T07:14:16;12.73;;;11.60;;
3299;SDS011;1662;49.310;8.134;2024-02-15T07:16:45;11.03;;;8.07;;
3299;SDS011;1662;49.310;8.134;2024-02-15T07:19:12;10.47;;;9.33;;
3299;SDS011;1662;49.310;8.134;2024-02-15T07:21:38;10.23;;;7.20;;
3299;SDS011;1662;49.310;8.134;2024-02-15T07:24:04;9.97;;;7.97;;
3299;SDS011;1662;49.310;8.134;2024-02-15T07:26:30;8.03;;;7.33;;
3299;SDS011;1662;49.310;8.134;2024-02-15T07:28:56;9.77;;;6.53;;
3299;SDS011;1662;49.310;8.134;2024-02-15T07:31:22;7.43;;;6.07;;
3299;SDS011;1662;49.310;8.134;2024-02-15T07:33:52;6.43;;;5.77;;
3299;SDS011;1662;49.310;8.134;2024-02-15T07:36:19;7.43;;;3.73;;
3299;SDS011;1662;49.310;8.134;2024-02-15T07:38:46;3.57;;;2.90;;
3299;SDS011;1662;49.310;8.134;2024-02-15T07:41:13;5.73;;;3.70;;
3299;SDS011;1662;49.310;8.134;2024-02-15T07:43:39;3.90;;;3.50;;
3299;SDS011;1662;49.310;8.134;2024-02-15T07:46:05;3.10;;;2.80;;
3299;SDS011;1662;49.310;8.134;2024-02-15T07:48:36;6.33;;;3.80;;
3299;SDS011;1662;49.310;8.134;2024-02-15T07:51:03;6.43;;;4.07;;
3299;SDS011;1662;49.310;8.134;2024-02-15T07:53:31;3.27;;;3.17;;
3299;SDS011;1662;49.310;8.134;2024-02-15T07:55:57;4.30;;;3.90;;
3299;SDS011;1662;49.310;8.134;2024-02-15T07:58:23;4.67;;;4.20;;
3299;SDS011;1662;49.310;8.134;2024-02-15T08:00:49;4.37;;;4.03;;
3299;SDS011;1662;49.310;8.134;2024-02-15T08:03:14;4.50;;;3.30;;
3299;SDS011;1662;49.310;8.134;2024-02-15T08:05:40;4.40;;;4.00;;
3299;SDS011;1662;49.310;8.134;2024-02-15T08:08:06;4.73;;;4.20;;
3299;SDS011;1662;49.310;8.134;2024-02-15T08:10:32;6.63;;;4.40;;
3299;SDS011;1662;49.310;8.134;2024-02-15T08:12:58;6.27;;;4.90;;
3299;SDS011;1662;49.310;8.134;2024-02-15T08:15:24;6.63;;;4.97;;
3299;SDS011;1662;49.310;8.134;2024-02-15T08:17:52;4.53;;;4.23;;
3299;SDS011;1662;49.310;8.134;2024-02-15T08:20:20;4.83;;;4.43;;
3299;SDS011;1662;49.310;8.134;2024-02-15T08:22:48;6.83;;;5.40;;
3299;SDS011;1662;49.310;8.134;2024-02-15T08:25:14;5.70;;;5.10;;
3299;SDS011;1662;49.310;8.134;2024-02-15T08:27:43;4.77;;;3.97;;
3299;SDS011;1662;49.310;8.134;2024-02-15T08:30:14;3.90;;;3.60;;
3299;SDS011;1662;49.310;8.134;2024-02-15T08:32:41;4.63;;;4.33;;
3299;SDS011;1662;49.310;8.134;2024-02-15T08:35:07;5.27;;;4.57;;
3299;SDS011;1662;49.310;8.134;2024-02-15T08:37:37;5.20;;;4.80;;
3299;SDS011;1662;49.310;8.134;2024-02-15T08:40:03;5.83;;;4.53;;
3299;SDS011;1662;49.310;8.134;2024-02-15T08:42:40;5.97;;;4.80;;
3299;SDS011;1662;49.310;8.134;2024-02-15T08:45:07;7.33;;;4.40;;
3299;SDS011;1662;49.310;8.134;2024-02-15T08:47:34;5.70;;;4.30;;
3299;SDS011;1662;49.310;8.134;2024-02-15T08:50:04;4.30;;;3.67;;
3299;SDS011;1662;49.310;8.134;2024-02-15T08:52:33;4.67;;;4.27;;
3299;SDS011;1662;49.310;8.134;2024-02-15T08:54:59;4.30;;;3.80;;
3299;SDS011;1662;49.310;8.134;2024-02-15T08:57:25;5.50;;;3.80;;
3299;SDS011;1662;49.310;8.134;2024-02-15T08:59:51;3.37;;;3.17;;
3299;SDS011;1662;49.310;8.134;2024-02-15T09:02:20;3.30;;;3.00;;
3299;SDS011;1662;49.310;8.134;2024-02-15T09:04:48;3.00;;;2.80;;
3299;SDS011;1662;49.310;8.134;2024-02-15T09:07:14;4.23;;;3.83;;
3299;SDS011;1662;49.310;8.134;2024-02-15T09:09:42;4.87;;;3.50;;
3299;SDS011;1662;49.310;8.134;2024-02-15T09:12:07;11.30;;;3.90;;
3299;SDS011;1662;49.310;8.134;2024-02-15T09:14:38;3.03;;;2.77;;
3299;SDS011;1662;49.310;8.134;2024-02-15T09:17:04;6.73;;;2.50;;
3299;SDS011;1662;49.310;8.134;2024-02-15T09:19:33;2.47;;;2.27;;
3299;SDS011;1662;49.310;8.134;2024-02-15T09:21:59;2.70;;;2.50;;
3299;SDS011;1662;49.310;8.134;2024-02-15T09:24:25;4.00;;;2.60;;
3299;SDS011;1662;49.310;8.134;2024-02-15T09:26:51;3.73;;;2.30;;
3299;SDS011;1662;49.310;8.134;2024-02-15T09:29:17;2.37;;;2.27;;
3299;SDS011;1662;49.310;8.134;2024-02-15T09:31:45;2.27;;;2.17;;
3299;SDS011;1662;49.310;8.134;2024-02-15T09:34:12;2.00;;;1.90;;
3299;SDS011;1662;49.310;8.134;2024-02-15T09:36:40;4.57;;;2.40;;
3299;SDS011;1662;49.310;8.134;2024-02-15T09:39:06;2.50;;;2.23;;
3299;SDS011;1662;49.310;8.134;2024-02-15T09:41:32;2.70;;;2.50;;
3299;SDS011;1662;49.310;8.134;2024-02-15T09:43:59;2.90;;;2.60;;
3299;SDS011;1662;49.310;8.134;2024-02-15T09:46:26;3.17;;;2.97;;
3299;SDS011;1662;49.310;8.134;2024-02-15T09:48:54;2.70;;;2.50;;
3299;SDS011;1662;49.310;8.134;2024-02-15T09:51:27;4.43;;;2.97;;
3299;SDS011;1662;49.310;8.134;2024-02-15T09:53:58;4.93;;;2.50;;
3299;SDS011;1662;49.310;8.134;2024-02-15T09:56:26;3.27;;;3.00;;
3299;SDS011;1662;49.310;8.134;2024-02-15T09:58:55;3.47;;;1.97;;
3299;SDS011;1662;49.310;8.134;2024-02-15T10:01:22;2.87;;;2.57;;
3299;SDS011;1662;49.310;8.134;2024-02-15T10:03:49;4.67;;;2.10;;
3299;SDS011;1662;49.310;8.134;2024-02-15T10:06:18;2.23;;;2.00;;
3299;SDS011;1662;49.310;8.134;2024-02-15T10:08:45;2.00;;;1.80;;
3299;SDS011;1662;49.310;8.134;2024-02-15T10:11:12;2.60;;;2.50;;
3299;SDS011;1662;49.310;8.134;2024-02-15T10:13:37;2.60;;;2.20;;
3299;SDS011;1662;49.310;8.134;2024-02-15T10:16:20;2.40;;;2.20;;
3299;SDS011;1662;49.310;8.134;2024-02-15T10:18:50;2.33;;;2.20;;
3299;SDS011;1662;49.310;8.134;2024-02-15T10:21:25;2.70;;;2.20;;
3299;SDS011;1662;49.310;8.134;2024-02-15T10:24:06;2.80;;;2.30;;
3299;SDS011;1662;49.310;8.134;2024-02-15T10:26:35;2.83;;;1.97;;
3299;SDS011;1662;49.310;8.134;2024-02-15T10:29:04;2.47;;;2.27;;
3299;SDS011;1662;49.310;8.134;2024-02-15T10:31:35;2.20;;;2.10;;
3299;SDS011;1662;49.310;8.134;2024-02-15T10:34:04;2.33;;;2.13;;
3299;SDS011;1662;49.310;8.134;2024-02-15T10:36:32;1.70;;;1.60;;
3299;SDS011;1662;49.310;8.134;2024-02-15T10:39:10;2.47;;;2.03;;
3299;SDS011;1662;49.310;8.134;2024-02-15T10:41:38;1.97;;;1.87;;
3299;SDS011;1662;49.310;8.134;2024-02-15T10:44:06;2.00;;;1.83;;
3299;SDS011;1662;49.310;8.134;2024-02-15T10:46:33;2.00;;;1.90;;
3299;SDS011;1662;49.310;8.134;2024-02-15T10:48:59;2.10;;;2.00;;
3299;SDS011;1662;49.310;8.134;2024-02-15T10:51:25;2.03;;;1.93;;
3299;SDS011;1662;49.310;8.134;2024-02-15T10:53:56;2.27;;;2.17;;
3299;SDS011;1662;49.310;8.134;2024-02-15T10:56:33;1.90;;;1.80;;
3299;SDS011;1662;49.310;8.134;2024-02-15T11:01:42;5.60;;;2.07;;
3299;SDS011;1662;49.310;8.134;2024-02-15T11:04:10;2.20;;;2.10;;
3299;SDS011;1662;49.310;8.134;2024-02-15T11:06:39;2.23;;;1.90;;
3299;SDS011;1662;49.310;8.134;2024-02-15T11:09:09;5.33;;;2.00;;
3299;SDS011;1662;49.310;8.134;2024-02-15T11:11:38;4.77;;;3.40;;
3299;SDS011;1662;49.310;8.134;2024-02-15T11:16:49;3.00;;;2.67;;
3299;SDS011;1662;49.310;8.134;2024-02-15T11:19:57;2.10;;;2.00;;
3299;SDS011;1662;49.310;8.134;2024-02-15T11:22:11;2.00;;;1.90;;
3299;SDS011;1662;49.310;8.134;2024-02-15T11:24:46;2.50;;;2.10;;
3299;SDS011;1662;49.310;8.134;2024-02-15T11:27:23;3.30;;;2.37;;
3299;SDS011;1662;49.310;8.134;2024-02-15T11:35:23;2.83;;;2.37;;
3299;SDS011;1662;49.310;8.134;2024-02-15T11:37:51;1.70;;;1.60;;
3299;SDS011;1662;49.310;8.134;2024-02-15T11:40:28;4.30;;;2.87;;
3299;SDS011;1662;49.310;8.134;2024-02-15T11:45:24;3.10;;;2.40;;
3299;SDS011;1662;49.310;8.134;2024-02-15T11:47:58;2.80;;;1.90;;
3299;SDS011;1662;49.310;8.134;2024-02-15T11:50:24;1.90;;;1.80;;
3299;SDS011;1662;49.310;8.134;2024-02-15T11:52:50;3.23;;;2.13;;
3299;SDS011;1662;49.310;8.134;2024-02-15T11:55:22;2.43;;;1.90;;
3299;SDS011;1662;49.310;8.134;2024-02-15T11:57:57;2.20;;;2.00;;
3299;SDS011;1662;49.310;8.134;2024-02-15T12:00:43;2.60;;;2.40;;
3299;SDS011;1662;49.310;8.134;2024-02-15T12:03:27;2.10;;;2.00;;
3299;SDS011;1662;49.310;8.134;2024-02-15T12:06:11;2.40;;;1.80;;
3299;SDS011;1662;49.310;8.134;2024-02-15T12:09:00;1.70;;;1.60;;
3299;SDS011;1662;49.310;8.134;2024-02-15T12:11:44;2.47;;;2.30;;
3299;SDS011;1662;49.310;8.134;2024-02-15T12:14:28;1.80;;;1.70;;
3299;SDS011;1662;49.310;8.134;2024-02-15T12:17:12;1.80;;;1.70;;
3299;SDS011;1662;49.310;8.134;2024-02-15T12:20:00;3.93;;;1.93;;
3299;SDS011;1662;49.310;8.134;2024-02-15T12:22:42;1.90;;;1.80;;
3299;SDS011;1662;49.310;8.134;2024-02-15T12:25:17;4.90;;;1.77;;
3299;SDS011;1662;49.310;8.134;2024-02-15T12:27:46;2.00;;;1.90;;
3299;SDS011;1662;49.310;8.134;2024-02-15T12:30:17;1.90;;;1.63;;
3299;SDS011;1662;49.310;8.134;2024-02-15T12:32:46;2.93;;;1.83;;
3299;SDS011;1662;49.310;8.134;2024-02-15T12:35:13;2.03;;;1.73;;
3299;SDS011;1662;49.310;8.134;2024-02-15T12:38:01;1.70;;;1.60;;
3299;SDS011;1662;49.310;8.134;2024-02-15T12:40:36;3.23;;;1.80;;
3299;SDS011;1662;49.310;8.134;2024-02-15T12:43:09;4.10;;;2.30;;
3299;SDS011;1662;49.310;8.134;2024-02-15T12:45:36;2.73;;;2.03;;
3299;SDS011;1662;49.310;8.134;2024-02-15T12:48:06;3.70;;;2.20;;
3299;SDS011;1662;49.310;8.134;2024-02-15T12:50:32;2.07;;;1.87;;
3299;SDS011;1662;49.310;8.134;2024-02-15T12:52:59;2.57;;;2.40;;
3299;SDS011;1662;49.310;8.134;2024-02-15T12:55:33;2.00;;;1.90;;
3299;SDS011;1662;49.310;8.134;2024-02-15T12:58:01;2.90;;;1.80;;
3299;SDS011;1662;49.310;8.134;2024-02-15T13:00:40;2.30;;;2.20;;
3299;SDS011;1662;49.310;8.134;2024-02-15T13:03:09;2.53;;;2.33;;
3299;SDS011;1662;49.310;8.134;2024-02-15T13:05:35;2.30;;;1.83;;
3299;SDS011;1662;49.310;8.134;2024-02-15T13:08:02;2.47;;;2.37;;
3299;SDS011;1662;49.310;8.134;2024-02-15T13:10:28;2.30;;;1.90;;
3299;SDS011;1662;49.310;8.134;2024-02-15T13:12:54;2.57;;;2.40;;
3299;SDS011;1662;49.310;8.134;2024-02-15T13:15:21;2.17;;;2.00;;
3299;SDS011;1662;49.310;8.134;2024-02-15T13:17:52;2.90;;;1.90;;
3299;SDS011;1662;49.310;8.134;2024-02-15T13:20:19;6.70;;;2.40;;
3299;SDS011;1662;49.310;8.134;2024-02-15T13:22:55;2.07;;;1.90;;
3299;SDS011;1662;49.310;8.134;2024-02-15T13:25:25;2.13;;;1.90;;
3299;SDS011;1662;49.310;8.134;2024-02-15T13:27:53;3.13;;;2.50;;
3299;SDS011;1662;49.310;8.134;2024-02-15T13:30:19;3.50;;;2.40;;
3299;SDS011;1662;49.310;8.134;2024-02-15T13:32:48;3.70;;;2.60;;
3299;SDS011;1662;49.310;8.134;2024-02-15T13:35:20;2.33;;;2.20;;
3299;SDS011;1662;49.310;8.134;2024-02-15T13:37:49;3.73;;;2.67;;
3299;SDS011;1662;49.310;8.134;2024-02-15T13:40:17;2.60;;;2.40;;
3299;SDS011;1662;49.310;8.134;2024-02-15T13:42:45;3.07;;;2.57;;
3299;SDS011;1662;49.310;8.134;2024-02-15T13:45:39;2.70;;;2.60;;
3299;SDS011;1662;49.310;8.134;2024-02-15T13:48:06;3.53;;;2.60;;
3299;SDS011;1662;49.310;8.134;2024-02-15T13:50:33;2.37;;;2.17;;
3299;SDS011;1662;49.310;8.134;2024-02-15T13:52:59;2.77;;;2.10;;
3299;SDS011;1662;49.310;8.134;2024-02-15T13:55:26;2.80;;;2.60;;
3299;SDS011;1662;49.310;8.134;2024-02-15T13:57:52;10.40;;;2.70;;
3299;SDS011;1662;49.310;8.134;2024-02-15T14:00:18;2.63;;;2.43;;
3299;SDS011;1662;49.310;8.134;2024-02-15T14:02:48;3.13;;;2.40;;
3299;SDS011;1662;49.310;8.134;2024-02-15T14:05:14;2.30;;;2.20;;
3299;SDS011;1662;49.310;8.134;2024-02-15T14:07:44;3.97;;;2.07;;
3299;SDS011;1662;49.310;8.134;2024-02-15T14:10:17;3.63;;;2.53;;
3299;SDS011;1662;49.310;8.134;2024-02-15T14:12:44;2.33;;;2.23;;
3299;SDS011;1662;49.310;8.134;2024-02-15T14:15:10;2.90;;;1.90;;
3299;SDS011;1662;49.310;8.134;2024-02-15T14:17:36;2.10;;;2.00;;
3299;SDS011;1662;49.310;8.134;2024-02-15T14:20:02;2.90;;;2.70;;
3299;SDS011;1662;49.310;8.134;2024-02-15T14:22:36;3.70;;;2.50;;
3299;SDS011;1662;49.310;8.134;2024-02-15T14:25:03;2.90;;;2.50;;
3299;SDS011;1662;49.310;8.134;2024-02-15T14:27:30;5.00;;;2.60;;
3299;SDS011;1662;49.310;8.134;2024-02-15T14:29:57;4.67;;;2.70;;
3299;SDS011;1662;49.310;8.134;2024-02-15T14:32:41;2.70;;;2.50;;
3299;SDS011;1662;49.310;8.134;2024-02-15T14:35:32;2.60;;;2.07;;
3299;SDS011;1662;49.310;8.134;2024-02-15T14:38:02;3.17;;;2.30;;
3299;SDS011;1662;49.310;8.134;2024-02-15T14:40:32;2.53;;;2.40;;
3299;SDS011;1662;49.310;8.134;2024-02-15T14:42:58;3.03;;;2.83;;
3299;SDS011;1662;49.310;8.134;2024-02-15T14:45:24;2.77;;;2.67;;
3299;SDS011;1662;49.310;8.134;2024-02-15T14:47:51;2.70;;;2.50;;
3299;SDS011;1662;49.310;8.134;2024-02-15T14:50:17;3.20;;;2.87;;
3299;SDS011;1662;49.310;8.134;2024-02-15T14:52:42;2.90;;;2.80;;
3299;SDS011;1662;49.310;8.134;2024-02-15T14:55:08;4.23;;;2.63;;
3299;SDS011;1662;49.310;8.134;2024-02-15T14:57:34;5.30;;;2.80;;
3299;SDS011;1662;49.310;8.134;2024-02-15T15:00:06;3.43;;;3.13;;
3299;SDS011;1662;49.310;8.134;2024-02-15T15:02:42;2.60;;;2.40;;
3299;SDS011;1662;49.310;8.134;2024-02-15T15:05:12;2.70;;;2.50;;
3299;SDS011;1662;49.310;8.134;2024-02-15T15:07:59;4.00;;;2.13;;
3299;SDS011;1662;49.310;8.134;2024-02-15T15:10:47;2.50;;;2.40;;
3299;SDS011;1662;49.310;8.134;2024-02-15T15:13:32;5.90;;;2.33;;
3299;SDS011;1662;49.310;8.134;2024-02-15T15:15:59;3.80;;;2.30;;
3299;SDS011;1662;49.310;8.134;2024-02-15T15:18:25;3.33;;;2.40;;
3299;SDS011;1662;49.310;8.134;2024-02-15T15:20:54;2.57;;;2.37;;
3299;SDS011;1662;49.310;8.134;2024-02-15T15:23:20;2.70;;;2.23;;
3299;SDS011;1662;49.310;8.134;2024-02-15T15:25:50;4.10;;;2.33;;
3299;SDS011;1662;49.310;8.134;2024-02-15T15:28:15;4.20;;;2.70;;
3299;SDS011;1662;49.310;8.134;2024-02-15T15:30:41;2.83;;;2.60;;
3299;SDS011;1662;49.310;8.134;2024-02-15T15:33:13;3.13;;;2.53;;
3299;SDS011;1662;49.310;8.134;2024-02-15T15:35:42;3.23;;;2.93;;
3299;SDS011;1662;49.310;8.134;2024-02-15T15:38:11;3.70;;;2.70;;